sensor_id;sensor_type;location;lat;lon;timestamp;temperature;humidity
4811;DHT22;2419;51.276;6.472;2023-01-26T00:02:04;-1.20;99.90
4811;DHT22;2419;51.276;6.472;2023-01-26T00:04:32;-1.20;99.90
4811;DHT22;2419;51.276;6.472;2023-01-26T00:07:00;-1.20;99.90
4811;DHT22;2419;51.276;6.472;2023-01-26T00:09:30;-1.20;99.90
4811;DHT22;2419;51.276;6.472;2023-01-26T00:12:00;-1.20;99.90
4811;DHT22;2419;51.276;6.472;2023-01-26T00:14:28;-1.20;99.90
4811;DHT22;2419;51.276;6.472;2023-01-26T00:17:19;-1.20;99.90
4811;DHT22;2419;51.276;6.472;2023-01-26T00:19:57;-1.20;99.90
4811;DHT22;2419;51.276;6.472;2023-01-26T00:22:26;-1.20;99.90
4811;DHT22;2419;51.276;6.472;2023-01-26T00:24:54;-1.10;99.90
4811;DHT22;2419;51.276;6.472;2023-01-26T00:27:24;-1.10;99.90
4811;DHT22;2419;51.276;6.472;2023-01-26T00:29:52;-1.10;99.90
4811;DHT22;2419;51.276;6.472;2023-01-26T00:32:20;-1.10;99.90
4811;DHT22;2419;51.276;6.472;2023-01-26T00:34:48;-1.10;99.90
4811;DHT22;2419;51.276;6.472;2023-01-26T00:37:16;-1.00;99.90
4811;DHT22;2419;51.276;6.472;2023-01-26T00:39:45;-1.10;99.90
4811;DHT22;2419;51.276;6.472;2023-01-26T00:42:13;-1.00;99.90
4811;DHT22;2419;51.276;6.472;2023-01-26T00:44:43;-1.00;99.90
4811;DHT22;2419;51.276;6.472;2023-01-26T00:47:13;-1.00;99.90
4811;DHT22;2419;51.276;6.472;2023-01-26T00:49:41;-1.00;99.90
4811;DHT22;2419;51.276;6.472;2023-01-26T00:52:09;-0.90;99.90
4811;DHT22;2419;51.276;6.472;2023-01-26T00:54:38;-1.00;99.90
4811;DHT22;2419;51.276;6.472;2023-01-26T00:57:06;-0.90;99.90
4811;DHT22;2419;51.276;6.472;2023-01-26T00:59:34;-0.90;99.90
4811;DHT22;2419;51.276;6.472;2023-01-26T01:02:04;-0.90;99.90
4811;DHT22;2419;51.276;6.472;2023-01-26T01:04:32;-1.00;99.90
4811;DHT22;2419;51.276;6.472;2023-01-26T01:07:00;-1.00;99.90
4811;DHT22;2419;51.276;6.472;2023-01-26T01:09:28;-1.00;99.90
4811;DHT22;2419;51.276;6.472;2023-01-26T01:11:56;-1.00;99.90
4811;DHT22;2419;51.276;6.472;2023-01-26T01:14:24;-1.00;99.90
4811;DHT22;2419;51.276;6.472;2023-01-26T01:16:52;-1.10;99.90
4811;DHT22;2419;51.276;6.472;2023-01-26T01:19:22;-1.00;99.90
4811;DHT22;2419;51.276;6.472;2023-01-26T01:21:50;-1.00;99.90
4811;DHT22;2419;51.276;6.472;2023-01-26T01:24:18;-1.10;99.90
4811;DHT22;2419;51.276;6.472;2023-01-26T01:26:46;-1.00;99.90
4811;DHT22;2419;51.276;6.472;2023-01-26T01:29:14;-1.00;99.90
4811;DHT22;2419;51.276;6.472;2023-01-26T01:31:42;-1.00;99.90
4811;DHT22;2419;51.276;6.472;2023-01-26T01:34:10;-1.10;99.90
4811;DHT22;2419;51.276;6.472;2023-01-26T01:36:40;-1.10;99.90
4811;DHT22;2419;51.276;6.472;2023-01-26T01:39:08;-1.10;99.90
4811;DHT22;2419;51.276;6.472;2023-01-26T01:41:36;-1.00;99.90
4811;DHT22;2419;51.276;6.472;2023-01-26T01:44:12;-1.10;99.90
4811;DHT22;2419;51.276;6.472;2023-01-26T01:46:45;-1.20;99.90
4811;DHT22;2419;51.276;6.472;2023-01-26T01:49:18;-1.10;99.90
4811;DHT22;2419;51.276;6.472;2023-01-26T01:51:51;-1.00;99.90
4811;DHT22;2419;51.276;6.472;2023-01-26T01:54:27;-1.10;99.90
4811;DHT22;2419;51.276;6.472;2023-01-26T01:56:59;-1.00;99.90
4811;DHT22;2419;51.276;6.472;2023-01-26T01:59:30;-1.00;99.90
4811;DHT22;2419;51.276;6.472;2023-01-26T02:01:59;-1.00;99.90
4811;DHT22;2419;51.276;6.472;2023-01-26T02:04:27;-1.00;99.90
4811;DHT22;2419;51.276;6.472;2023-01-26T02:06:58;-0.90;99.90
4811;DHT22;2419;51.276;6.472;2023-01-26T02:09:33;-1.00;99.90
4811;DHT22;2419;51.276;6.472;2023-01-26T02:12:21;-1.00;99.90
4811;DHT22;2419;51.276;6.472;2023-01-26T02:14:51;-0.90;99.90
4811;DHT22;2419;51.276;6.472;2023-01-26T02:17:20;-1.00;99.90
4811;DHT22;2419;51.276;6.472;2023-01-26T02:19:54;-0.90;99.90
4811;DHT22;2419;51.276;6.472;2023-01-26T02:22:32;-0.90;99.90
4811;DHT22;2419;51.276;6.472;2023-01-26T02:25:09;-0.90;99.90
4811;DHT22;2419;51.276;6.472;2023-01-26T02:27:42;-0.90;99.90
4811;DHT22;2419;51.276;6.472;2023-01-26T02:30:12;-0.90;99.90
4811;DHT22;2419;51.276;6.472;2023-01-26T02:32:40;-0.80;99.90
4811;DHT22;2419;51.276;6.472;2023-01-26T02:35:08;-0.90;99.90
4811;DHT22;2419;51.276;6.472;2023-01-26T02:37:37;-0.90;99.90
4811;DHT22;2419;51.276;6.472;2023-01-26T02:40:10;-0.80;99.90
4811;DHT22;2419;51.276;6.472;2023-01-26T02:42:41;-0.80;99.90
4811;DHT22;2419;51.276;6.472;2023-01-26T02:45:12;-0.90;99.90
4811;DHT22;2419;51.276;6.472;2023-01-26T02:47:42;-0.80;99.90
4811;DHT22;2419;51.276;6.472;2023-01-26T02:50:11;-0.80;99.90
4811;DHT22;2419;51.276;6.472;2023-01-26T02:52:41;-0.80;99.90
4811;DHT22;2419;51.276;6.472;2023-01-26T02:55:15;-0.70;99.90
4811;DHT22;2419;51.276;6.472;2023-01-26T02:57:51;-0.80;99.90
4811;DHT22;2419;51.276;6.472;2023-01-26T03:00:22;-0.80;99.90
4811;DHT22;2419;51.276;6.472;2023-01-26T03:02:52;-0.70;99.90
4811;DHT22;2419;51.276;6.472;2023-01-26T03:05:23;-0.70;99.90
4811;DHT22;2419;51.276;6.472;2023-01-26T03:07:52;-0.80;99.90
4811;DHT22;2419;51.276;6.472;2023-01-26T03:10:23;-0.80;99.90
4811;DHT22;2419;51.276;6.472;2023-01-26T03:12:54;-0.80;99.90
4811;DHT22;2419;51.276;6.472;2023-01-26T03:15:22;-0.80;99.90
4811;DHT22;2419;51.276;6.472;2023-01-26T03:18:11;-0.70;99.90
4811;DHT22;2419;51.276;6.472;2023-01-26T03:20:58;-0.70;99.90
4811;DHT22;2419;51.276;6.472;2023-01-26T03:23:45;-0.70;99.90
4811;DHT22;2419;51.276;6.472;2023-01-26T03:26:32;-0.70;99.90
4811;DHT22;2419;51.276;6.472;2023-01-26T03:29:19;-0.70;99.90
4811;DHT22;2419;51.276;6.472;2023-01-26T03:31:48;-0.70;99.90
4811;DHT22;2419;51.276;6.472;2023-01-26T03:34:16;-0.70;99.90
4811;DHT22;2419;51.276;6.472;2023-01-26T03:36:46;-0.70;99.90
4811;DHT22;2419;51.276;6.472;2023-01-26T03:39:17;-0.60;99.90
4811;DHT22;2419;51.276;6.472;2023-01-26T03:42:03;-0.50;99.90
4811;DHT22;2419;51.276;6.472;2023-01-26T03:44:50;-0.50;99.90
4811;DHT22;2419;51.276;6.472;2023-01-26T03:47:39;-0.50;99.90
4811;DHT22;2419;51.276;6.472;2023-01-26T03:50:25;-0.60;99.90
4811;DHT22;2419;51.276;6.472;2023-01-26T03:53:14;-0.60;99.90
4811;DHT22;2419;51.276;6.472;2023-01-26T03:56:03;-0.60;99.90
4811;DHT22;2419;51.276;6.472;2023-01-26T03:58:51;-0.60;99.90
4811;DHT22;2419;51.276;6.472;2023-01-26T04:01:24;-0.60;99.90
4811;DHT22;2419;51.276;6.472;2023-01-26T04:03:56;-0.50;99.90
4811;DHT22;2419;51.276;6.472;2023-01-26T04:06:45;-0.60;99.90
4811;DHT22;2419;51.276;6.472;2023-01-26T04:09:32;-0.60;99.90
4811;DHT22;2419;51.276;6.472;2023-01-26T04:12:00;-0.60;99.90
4811;DHT22;2419;51.276;6.472;2023-01-26T04:14:28;-0.70;99.90
4811;DHT22;2419;51.276;6.472;2023-01-26T04:17:21;-0.60;99.90
4811;DHT22;2419;51.276;6.472;2023-01-26T04:20:08;-0.60;99.90
4811;DHT22;2419;51.276;6.472;2023-01-26T04:22:54;-0.60;99.90
4811;DHT22;2419;51.276;6.472;2023-01-26T04:25:22;-0.50;99.90
4811;DHT22;2419;51.276;6.472;2023-01-26T04:27:51;-0.60;99.90
4811;DHT22;2419;51.276;6.472;2023-01-26T04:30:19;-0.50;99.90
4811;DHT22;2419;51.276;6.472;2023-01-26T04:32:50;-0.50;99.90
4811;DHT22;2419;51.276;6.472;2023-01-26T04:35:18;-0.50;99.90
4811;DHT22;2419;51.276;6.472;2023-01-26T04:37:47;-0.50;99.90
4811;DHT22;2419;51.276;6.472;2023-01-26T04:40:15;-0.60;99.90
4811;DHT22;2419;51.276;6.472;2023-01-26T04:42:45;-0.60;99.90
4811;DHT22;2419;51.276;6.472;2023-01-26T04:45:13;-0.60;99.90
4811;DHT22;2419;51.276;6.472;2023-01-26T04:47:43;-0.60;99.90
4811;DHT22;2419;51.276;6.472;2023-01-26T04:50:14;-0.50;99.90
4811;DHT22;2419;51.276;6.472;2023-01-26T04:52:46;-0.60;99.90
4811;DHT22;2419;51.276;6.472;2023-01-26T04:55:15;-0.50;99.90
4811;DHT22;2419;51.276;6.472;2023-01-26T04:57:43;-0.50;99.90
4811;DHT22;2419;51.276;6.472;2023-01-26T05:00:12;-0.60;99.90
4811;DHT22;2419;51.276;6.472;2023-01-26T05:02:41;-0.50;99.90
4811;DHT22;2419;51.276;6.472;2023-01-26T05:05:09;-0.40;99.90
4811;DHT22;2419;51.276;6.472;2023-01-26T05:07:39;-0.40;99.90
4811;DHT22;2419;51.276;6.472;2023-01-26T05:10:08;-0.40;99.90
4811;DHT22;2419;51.276;6.472;2023-01-26T05:12:51;-0.40;99.90
4811;DHT22;2419;51.276;6.472;2023-01-26T05:15:37;-0.40;99.90
4811;DHT22;2419;51.276;6.472;2023-01-26T05:18:13;-0.50;99.90
4811;DHT22;2419;51.276;6.472;2023-01-26T05:21:04;-0.40;99.90
4811;DHT22;2419;51.276;6.472;2023-01-26T05:23:43;-0.40;99.90
4811;DHT22;2419;51.276;6.472;2023-01-26T05:26:26;-0.30;99.90
4811;DHT22;2419;51.276;6.472;2023-01-26T05:28:57;-0.30;99.90
4811;DHT22;2419;51.276;6.472;2023-01-26T05:31:25;-0.40;99.90
4811;DHT22;2419;51.276;6.472;2023-01-26T05:33:54;-0.30;99.90
4811;DHT22;2419;51.276;6.472;2023-01-26T05:36:23;-0.30;99.90
4811;DHT22;2419;51.276;6.472;2023-01-26T05:38:52;-0.20;99.90
4811;DHT22;2419;51.276;6.472;2023-01-26T05:41:24;-0.30;99.90
4811;DHT22;2419;51.276;6.472;2023-01-26T05:44:07;-0.30;99.90
4811;DHT22;2419;51.276;6.472;2023-01-26T05:46:47;-0.30;99.90
4811;DHT22;2419;51.276;6.472;2023-01-26T05:49:16;-0.40;99.90
4811;DHT22;2419;51.276;6.472;2023-01-26T05:51:44;-0.40;99.90
4811;DHT22;2419;51.276;6.472;2023-01-26T05:54:15;-0.40;99.90
4811;DHT22;2419;51.276;6.472;2023-01-26T05:56:43;-0.40;99.90
4811;DHT22;2419;51.276;6.472;2023-01-26T05:59:12;-0.30;99.90
4811;DHT22;2419;51.276;6.472;2023-01-26T06:01:41;-0.40;99.90
4811;DHT22;2419;51.276;6.472;2023-01-26T06:04:10;-0.30;99.90
4811;DHT22;2419;51.276;6.472;2023-01-26T06:06:52;-0.20;99.90
4811;DHT22;2419;51.276;6.472;2023-01-26T06:09:25;-0.30;99.90
4811;DHT22;2419;51.276;6.472;2023-01-26T06:12:14;-0.30;99.90
4811;DHT22;2419;51.276;6.472;2023-01-26T06:14:58;-0.30;99.90
4811;DHT22;2419;51.276;6.472;2023-01-26T06:17:52;-0.30;99.90
4811;DHT22;2419;51.276;6.472;2023-01-26T06:20:21;-0.30;99.90
4811;DHT22;2419;51.276;6.472;2023-01-26T06:22:58;-0.30;99.90
4811;DHT22;2419;51.276;6.472;2023-01-26T06:25:30;-0.30;99.90
4811;DHT22;2419;51.276;6.472;2023-01-26T06:27:58;-0.30;99.90
4811;DHT22;2419;51.276;6.472;2023-01-26T06:30:27;-0.30;99.90
4811;DHT22;2419;51.276;6.472;2023-01-26T06:33:00;-0.30;99.90
4811;DHT22;2419;51.276;6.472;2023-01-26T06:35:29;-0.30;99.90
4811;DHT22;2419;51.276;6.472;2023-01-26T06:38:00;-0.30;99.90
4811;DHT22;2419;51.276;6.472;2023-01-26T06:40:30;-0.20;99.90
4811;DHT22;2419;51.276;6.472;2023-01-26T06:42:58;-0.20;99.90
4811;DHT22;2419;51.276;6.472;2023-01-26T06:45:26;-0.20;99.90
4811;DHT22;2419;51.276;6.472;2023-01-26T06:47:54;-0.20;99.90
4811;DHT22;2419;51.276;6.472;2023-01-26T06:50:25;-0.30;99.90
4811;DHT22;2419;51.276;6.472;2023-01-26T06:52:59;-0.30;99.90
4811;DHT22;2419;51.276;6.472;2023-01-26T06:55:42;-0.30;99.90
4811;DHT22;2419;51.276;6.472;2023-01-26T06:58:29;-0.30;99.90
4811;DHT22;2419;51.276;6.472;2023-01-26T07:01:06;-0.30;99.90
4811;DHT22;2419;51.276;6.472;2023-01-26T07:03:34;-0.30;99.90
4811;DHT22;2419;51.276;6.472;2023-01-26T07:06:02;-0.30;99.90
4811;DHT22;2419;51.276;6.472;2023-01-26T07:08:31;-0.20;99.90
4811;DHT22;2419;51.276;6.472;2023-01-26T07:11:01;-0.20;99.90
4811;DHT22;2419;51.276;6.472;2023-01-26T07:13:29;-0.20;99.90
4811;DHT22;2419;51.276;6.472;2023-01-26T07:16:00;-0.20;99.90
4811;DHT22;2419;51.276;6.472;2023-01-26T07:18:28;-0.20;99.90
4811;DHT22;2419;51.276;6.472;2023-01-26T07:20:59;-0.20;99.90
4811;DHT22;2419;51.276;6.472;2023-01-26T07:23:28;-0.20;99.90
4811;DHT22;2419;51.276;6.472;2023-01-26T07:25:56;-0.20;99.90
4811;DHT22;2419;51.276;6.472;2023-01-26T07:28:26;-0.20;99.90
4811;DHT22;2419;51.276;6.472;2023-01-26T07:30:56;-0.20;99.90
4811;DHT22;2419;51.276;6.472;2023-01-26T07:33:25;-0.20;99.90
4811;DHT22;2419;51.276;6.472;2023-01-26T07:35:53;-0.20;99.90
4811;DHT22;2419;51.276;6.472;2023-01-26T07:38:21;-0.20;99.90
4811;DHT22;2419;51.276;6.472;2023-01-26T07:40:49;-0.20;99.90
4811;DHT22;2419;51.276;6.472;2023-01-26T07:43:18;-0.20;99.90
4811;DHT22;2419;51.276;6.472;2023-01-26T07:45:50;-0.20;99.90
4811;DHT22;2419;51.276;6.472;2023-01-26T07:48:19;-0.10;99.90
4811;DHT22;2419;51.276;6.472;2023-01-26T07:50:48;-0.10;99.90
4811;DHT22;2419;51.276;6.472;2023-01-26T07:53:17;-0.10;99.90
4811;DHT22;2419;51.276;6.472;2023-01-26T07:55:47;-0.10;99.90
4811;DHT22;2419;51.276;6.472;2023-01-26T07:58:15;-0.10;99.90
4811;DHT22;2419;51.276;6.472;2023-01-26T08:00:44;0.00;99.90
4811;DHT22;2419;51.276;6.472;2023-01-26T08:03:14;-0.10;99.90
4811;DHT22;2419;51.276;6.472;2023-01-26T08:05:42;0.00;99.90
4811;DHT22;2419;51.276;6.472;2023-01-26T08:08:11;-0.10;99.90
4811;DHT22;2419;51.276;6.472;2023-01-26T08:10:39;0.00;99.90
4811;DHT22;2419;51.276;6.472;2023-01-26T08:13:07;0.00;99.90
4811;DHT22;2419;51.276;6.472;2023-01-26T08:15:35;0.10;99.90
4811;DHT22;2419;51.276;6.472;2023-01-26T08:18:03;0.10;99.90
4811;DHT22;2419;51.276;6.472;2023-01-26T08:20:34;0.00;99.90
4811;DHT22;2419;51.276;6.472;2023-01-26T08:23:02;0.00;99.90
4811;DHT22;2419;51.276;6.472;2023-01-26T08:25:30;0.00;99.90
4811;DHT22;2419;51.276;6.472;2023-01-26T08:27:59;0.10;99.90
4811;DHT22;2419;51.276;6.472;2023-01-26T08:30:29;0.20;99.90
4811;DHT22;2419;51.276;6.472;2023-01-26T08:32:57;0.20;99.90
4811;DHT22;2419;51.276;6.472;2023-01-26T08:35:25;0.20;99.90
4811;DHT22;2419;51.276;6.472;2023-01-26T08:37:54;0.20;99.90
4811;DHT22;2419;51.276;6.472;2023-01-26T08:40:22;0.20;99.90
4811;DHT22;2419;51.276;6.472;2023-01-26T08:42:51;0.20;99.90
4811;DHT22;2419;51.276;6.472;2023-01-26T08:45:20;0.20;99.90
4811;DHT22;2419;51.276;6.472;2023-01-26T08:47:48;0.20;99.90
4811;DHT22;2419;51.276;6.472;2023-01-26T08:50:17;0.30;99.90
4811;DHT22;2419;51.276;6.472;2023-01-26T08:52:45;0.30;99.90
4811;DHT22;2419;51.276;6.472;2023-01-26T08:55:15;0.30;99.90
4811;DHT22;2419;51.276;6.472;2023-01-26T08:57:43;0.30;99.90
4811;DHT22;2419;51.276;6.472;2023-01-26T09:00:14;0.40;99.90
4811;DHT22;2419;51.276;6.472;2023-01-26T09:02:42;0.40;99.90
4811;DHT22;2419;51.276;6.472;2023-01-26T09:05:10;0.40;99.90
4811;DHT22;2419;51.276;6.472;2023-01-26T09:07:38;0.40;99.90
4811;DHT22;2419;51.276;6.472;2023-01-26T09:10:08;0.50;99.90
4811;DHT22;2419;51.276;6.472;2023-01-26T09:12:38;0.50;99.90
4811;DHT22;2419;51.276;6.472;2023-01-26T09:15:08;0.50;99.90
4811;DHT22;2419;51.276;6.472;2023-01-26T09:17:36;0.50;99.90
4811;DHT22;2419;51.276;6.472;2023-01-26T09:20:05;0.50;99.90
4811;DHT22;2419;51.276;6.472;2023-01-26T09:22:36;0.60;99.90
4811;DHT22;2419;51.276;6.472;2023-01-26T09:25:05;0.60;99.90
4811;DHT22;2419;51.276;6.472;2023-01-26T09:27:34;0.60;99.90
4811;DHT22;2419;51.276;6.472;2023-01-26T09:30:07;0.60;99.90
4811;DHT22;2419;51.276;6.472;2023-01-26T09:32:35;0.60;99.90
4811;DHT22;2419;51.276;6.472;2023-01-26T09:35:04;0.60;99.90
4811;DHT22;2419;51.276;6.472;2023-01-26T09:37:42;0.60;99.90
4811;DHT22;2419;51.276;6.472;2023-01-26T09:40:15;0.60;99.90
4811;DHT22;2419;51.276;6.472;2023-01-26T09:42:58;0.70;99.90
4811;DHT22;2419;51.276;6.472;2023-01-26T09:45:37;0.70;99.90
4811;DHT22;2419;51.276;6.472;2023-01-26T09:48:14;0.80;99.90
4811;DHT22;2419;51.276;6.472;2023-01-26T09:50:55;0.80;99.90
4811;DHT22;2419;51.276;6.472;2023-01-26T09:53:26;0.70;99.90
4811;DHT22;2419;51.276;6.472;2023-01-26T09:55:57;0.70;99.90
4811;DHT22;2419;51.276;6.472;2023-01-26T09:58:32;0.80;99.90
4811;DHT22;2419;51.276;6.472;2023-01-26T10:01:04;0.80;99.90
4811;DHT22;2419;51.276;6.472;2023-01-26T10:03:42;0.80;99.90
4811;DHT22;2419;51.276;6.472;2023-01-26T10:06:15;0.90;99.90
4811;DHT22;2419;51.276;6.472;2023-01-26T10:09:10;0.90;99.90
4811;DHT22;2419;51.276;6.472;2023-01-26T10:11:41;0.90;99.90
4811;DHT22;2419;51.276;6.472;2023-01-26T10:14:14;1.00;99.90
4811;DHT22;2419;51.276;6.472;2023-01-26T10:16:46;1.00;99.90
4811;DHT22;2419;51.276;6.472;2023-01-26T10:19:18;1.00;99.90
4811;DHT22;2419;51.276;6.472;2023-01-26T10:21:50;1.00;99.90
4811;DHT22;2419;51.276;6.472;2023-01-26T10:24:21;1.00;99.90
4811;DHT22;2419;51.276;6.472;2023-01-26T10:26:52;1.00;99.90
4811;DHT22;2419;51.276;6.472;2023-01-26T10:29:22;1.00;99.90
4811;DHT22;2419;51.276;6.472;2023-01-26T10:31:52;1.10;99.90
4811;DHT22;2419;51.276;6.472;2023-01-26T10:34:23;1.10;99.90
4811;DHT22;2419;51.276;6.472;2023-01-26T10:36:57;1.00;99.90
4811;DHT22;2419;51.276;6.472;2023-01-26T10:39:30;1.20;99.90
4811;DHT22;2419;51.276;6.472;2023-01-26T10:41:59;1.30;99.90
4811;DHT22;2419;51.276;6.472;2023-01-26T10:44:32;1.40;99.90
4811;DHT22;2419;51.276;6.472;2023-01-26T10:47:05;1.50;99.90
4811;DHT22;2419;51.276;6.472;2023-01-26T10:49:35;1.40;99.90
4811;DHT22;2419;51.276;6.472;2023-01-26T10:52:12;1.50;99.90
4811;DHT22;2419;51.276;6.472;2023-01-26T10:54:42;1.50;99.90
4811;DHT22;2419;51.276;6.472;2023-01-26T10:57:21;1.50;99.90
4811;DHT22;2419;51.276;6.472;2023-01-26T10:59:54;1.60;99.90
4811;DHT22;2419;51.276;6.472;2023-01-26T11:02:36;1.70;99.90
4811;DHT22;2419;51.276;6.472;2023-01-26T11:05:18;1.70;99.90
4811;DHT22;2419;51.276;6.472;2023-01-26T11:07:49;1.80;99.90
4811;DHT22;2419;51.276;6.472;2023-01-26T11:10:24;1.80;99.90
4811;DHT22;2419;51.276;6.472;2023-01-26T11:13:12;1.90;99.90
4811;DHT22;2419;51.276;6.472;2023-01-26T11:15:44;1.90;99.90
4811;DHT22;2419;51.276;6.472;2023-01-26T11:18:31;2.00;99.90
4811;DHT22;2419;51.276;6.472;2023-01-26T11:21:05;1.90;99.90
4811;DHT22;2419;51.276;6.472;2023-01-26T11:23:47;1.80;99.90
4811;DHT22;2419;51.276;6.472;2023-01-26T11:26:38;1.80;99.90
4811;DHT22;2419;51.276;6.472;2023-01-26T11:29:26;1.80;99.90
4811;DHT22;2419;51.276;6.472;2023-01-26T11:32:04;1.90;99.90
4811;DHT22;2419;51.276;6.472;2023-01-26T11:34:42;1.70;99.90
4811;DHT22;2419;51.276;6.472;2023-01-26T11:37:35;1.70;99.90
4811;DHT22;2419;51.276;6.472;2023-01-26T11:40:22;1.70;99.90
4811;DHT22;2419;51.276;6.472;2023-01-26T11:46:10;1.70;99.90
4811;DHT22;2419;51.276;6.472;2023-01-26T11:48:50;1.80;99.90
4811;DHT22;2419;51.276;6.472;2023-01-26T11:51:35;1.90;99.90
4811;DHT22;2419;51.276;6.472;2023-01-26T11:54:23;1.90;99.90
4811;DHT22;2419;51.276;6.472;2023-01-26T11:57:02;1.80;99.90
4811;DHT22;2419;51.276;6.472;2023-01-26T11:59:38;1.90;99.90
4811;DHT22;2419;51.276;6.472;2023-01-26T12:02:22;1.90;99.90
4811;DHT22;2419;51.276;6.472;2023-01-26T12:04:54;2.00;99.90
4811;DHT22;2419;51.276;6.472;2023-01-26T12:07:29;2.00;99.90
4811;DHT22;2419;51.276;6.472;2023-01-26T12:09:59;1.90;99.90
4811;DHT22;2419;51.276;6.472;2023-01-26T12:12:33;1.90;99.90
4811;DHT22;2419;51.276;6.472;2023-01-26T12:15:10;1.90;99.90
4811;DHT22;2419;51.276;6.472;2023-01-26T12:17:48;1.90;99.90
4811;DHT22;2419;51.276;6.472;2023-01-26T12:20:26;1.90;99.90
4811;DHT22;2419;51.276;6.472;2023-01-26T12:23:02;2.00;99.90
4811;DHT22;2419;51.276;6.472;2023-01-26T12:25:33;2.00;99.90
4811;DHT22;2419;51.276;6.472;2023-01-26T12:28:10;2.00;99.90
4811;DHT22;2419;51.276;6.472;2023-01-26T12:30:45;2.00;99.90
4811;DHT22;2419;51.276;6.472;2023-01-26T12:33:15;2.10;99.90
4811;DHT22;2419;51.276;6.472;2023-01-26T12:35:51;2.00;99.90
4811;DHT22;2419;51.276;6.472;2023-01-26T12:38:34;1.90;99.90
4811;DHT22;2419;51.276;6.472;2023-01-26T12:41:10;2.00;99.90
4811;DHT22;2419;51.276;6.472;2023-01-26T12:43:53;1.90;99.90
4811;DHT22;2419;51.276;6.472;2023-01-26T12:46:25;1.90;99.90
4811;DHT22;2419;51.276;6.472;2023-01-26T12:48:58;1.90;99.90
4811;DHT22;2419;51.276;6.472;2023-01-26T12:51:33;2.00;99.90
4811;DHT22;2419;51.276;6.472;2023-01-26T12:54:09;2.00;99.90
4811;DHT22;2419;51.276;6.472;2023-01-26T12:56:45;2.00;99.90
4811;DHT22;2419;51.276;6.472;2023-01-26T12:59:16;2.10;99.90
4811;DHT22;2419;51.276;6.472;2023-01-26T13:02:23;2.00;99.90
4811;DHT22;2419;51.276;6.472;2023-01-26T13:04:53;2.10;99.90
4811;DHT22;2419;51.276;6.472;2023-01-26T13:07:27;2.00;99.90
4811;DHT22;2419;51.276;6.472;2023-01-26T13:10:23;2.00;99.90
4811;DHT22;2419;51.276;6.472;2023-01-26T13:12:53;2.00;99.90
4811;DHT22;2419;51.276;6.472;2023-01-26T13:15:23;2.00;99.90
4811;DHT22;2419;51.276;6.472;2023-01-26T13:17:57;2.10;99.90
4811;DHT22;2419;51.276;6.472;2023-01-26T13:20:44;2.20;99.90
4811;DHT22;2419;51.276;6.472;2023-01-26T13:26:20;2.20;99.90
4811;DHT22;2419;51.276;6.472;2023-01-26T13:28:48;2.40;99.90
4811;DHT22;2419;51.276;6.472;2023-01-26T13:31:30;2.40;99.90
4811;DHT22;2419;51.276;6.472;2023-01-26T13:34:01;2.40;99.90
4811;DHT22;2419;51.276;6.472;2023-01-26T13:36:35;2.50;99.90
4811;DHT22;2419;51.276;6.472;2023-01-26T13:39:11;2.50;99.90
4811;DHT22;2419;51.276;6.472;2023-01-26T13:41:46;2.60;99.90
4811;DHT22;2419;51.276;6.472;2023-01-26T13:44:17;2.70;99.90
4811;DHT22;2419;51.276;6.472;2023-01-26T13:46:51;2.70;99.90
4811;DHT22;2419;51.276;6.472;2023-01-26T13:49:25;2.70;99.90
4811;DHT22;2419;51.276;6.472;2023-01-26T13:51:53;2.80;99.90
4811;DHT22;2419;51.276;6.472;2023-01-26T13:54:23;2.80;99.90
4811;DHT22;2419;51.276;6.472;2023-01-26T13:57:04;2.80;99.90
4811;DHT22;2419;51.276;6.472;2023-01-26T13:59:33;2.80;99.90
4811;DHT22;2419;51.276;6.472;2023-01-26T14:02:01;2.90;99.90
4811;DHT22;2419;51.276;6.472;2023-01-26T14:04:31;3.00;99.90
4811;DHT22;2419;51.276;6.472;2023-01-26T14:07:03;3.10;99.90
4811;DHT22;2419;51.276;6.472;2023-01-26T14:09:43;3.10;99.90
4811;DHT22;2419;51.276;6.472;2023-01-26T14:12:17;3.20;99.90
4811;DHT22;2419;51.276;6.472;2023-01-26T14:14:50;3.30;99.90
4811;DHT22;2419;51.276;6.472;2023-01-26T14:17:27;3.30;99.90
4811;DHT22;2419;51.276;6.472;2023-01-26T14:19:56;3.30;99.90
4811;DHT22;2419;51.276;6.472;2023-01-26T14:22:25;3.40;99.90
4811;DHT22;2419;51.276;6.472;2023-01-26T14:24:54;3.50;99.90
4811;DHT22;2419;51.276;6.472;2023-01-26T14:27:31;3.50;99.90
4811;DHT22;2419;51.276;6.472;2023-01-26T14:30:01;3.50;99.90
4811;DHT22;2419;51.276;6.472;2023-01-26T14:32:35;3.50;99.90
4811;DHT22;2419;51.276;6.472;2023-01-26T14:35:18;3.60;99.90
4811;DHT22;2419;51.276;6.472;2023-01-26T14:37:49;3.60;99.90
4811;DHT22;2419;51.276;6.472;2023-01-26T14:40:20;3.60;99.90
4811;DHT22;2419;51.276;6.472;2023-01-26T14:42:52;3.60;99.90
4811;DHT22;2419;51.276;6.472;2023-01-26T14:45:28;3.70;99.90
4811;DHT22;2419;51.276;6.472;2023-01-26T14:47:59;3.70;99.90
4811;DHT22;2419;51.276;6.472;2023-01-26T14:50:29;3.70;99.90
4811;DHT22;2419;51.276;6.472;2023-01-26T14:52:59;3.70;99.90
4811;DHT22;2419;51.276;6.472;2023-01-26T14:55:33;3.70;99.90
4811;DHT22;2419;51.276;6.472;2023-01-26T14:58:13;3.80;99.90
4811;DHT22;2419;51.276;6.472;2023-01-26T15:00:46;3.80;99.90
4811;DHT22;2419;51.276;6.472;2023-01-26T15:03:22;3.80;99.90
4811;DHT22;2419;51.276;6.472;2023-01-26T15:06:04;3.80;99.90
4811;DHT22;2419;51.276;6.472;2023-01-26T15:08:33;3.80;99.90
4811;DHT22;2419;51.276;6.472;2023-01-26T15:11:02;3.80;99.90
4811;DHT22;2419;51.276;6.472;2023-01-26T15:13:52;3.80;99.90
4811;DHT22;2419;51.276;6.472;2023-01-26T15:16:22;3.80;99.90
4811;DHT22;2419;51.276;6.472;2023-01-26T15:18:58;3.90;99.90
4811;DHT22;2419;51.276;6.472;2023-01-26T15:21:31;3.80;99.90
4811;DHT22;2419;51.276;6.472;2023-01-26T15:24:01;3.80;99.90
4811;DHT22;2419;51.276;6.472;2023-01-26T15:26:31;3.80;99.90
4811;DHT22;2419;51.276;6.472;2023-01-26T15:29:03;3.80;99.90
4811;DHT22;2419;51.276;6.472;2023-01-26T15:31:34;3.80;99.90
4811;DHT22;2419;51.276;6.472;2023-01-26T15:34:04;3.90;99.90
4811;DHT22;2419;51.276;6.472;2023-01-26T15:36:34;3.90;99.90
4811;DHT22;2419;51.276;6.472;2023-01-26T15:39:14;3.90;99.90
4811;DHT22;2419;51.276;6.472;2023-01-26T15:41:44;3.90;99.90
4811;DHT22;2419;51.276;6.472;2023-01-26T15:44:18;3.90;99.90
4811;DHT22;2419;51.276;6.472;2023-01-26T15:46:47;3.90;99.90
4811;DHT22;2419;51.276;6.472;2023-01-26T15:49:15;3.90;99.90
4811;DHT22;2419;51.276;6.472;2023-01-26T15:51:45;3.90;99.90
4811;DHT22;2419;51.276;6.472;2023-01-26T15:54:14;4.00;99.90
4811;DHT22;2419;51.276;6.472;2023-01-26T15:56:42;4.00;99.90
4811;DHT22;2419;51.276;6.472;2023-01-26T15:59:10;4.00;99.90
4811;DHT22;2419;51.276;6.472;2023-01-26T16:01:39;4.00;99.90
4811;DHT22;2419;51.276;6.472;2023-01-26T16:04:11;4.00;99.90
4811;DHT22;2419;51.276;6.472;2023-01-26T16:06:40;4.00;99.90
4811;DHT22;2419;51.276;6.472;2023-01-26T16:09:08;4.00;99.90
4811;DHT22;2419;51.276;6.472;2023-01-26T16:11:40;4.00;99.90
4811;DHT22;2419;51.276;6.472;2023-01-26T16:14:12;4.00;99.90
4811;DHT22;2419;51.276;6.472;2023-01-26T16:16:42;3.90;99.90
4811;DHT22;2419;51.276;6.472;2023-01-26T16:19:10;3.90;99.90
4811;DHT22;2419;51.276;6.472;2023-01-26T16:21:52;3.90;99.90
4811;DHT22;2419;51.276;6.472;2023-01-26T16:24:20;3.90;99.90
4811;DHT22;2419;51.276;6.472;2023-01-26T16:26:48;3.90;99.90
4811;DHT22;2419;51.276;6.472;2023-01-26T16:29:16;3.90;99.90
4811;DHT22;2419;51.276;6.472;2023-01-26T16:31:46;3.90;99.90
4811;DHT22;2419;51.276;6.472;2023-01-26T16:34:14;3.90;99.90
4811;DHT22;2419;51.276;6.472;2023-01-26T16:36:42;3.90;99.90
4811;DHT22;2419;51.276;6.472;2023-01-26T16:39:10;4.00;99.90
4811;DHT22;2419;51.276;6.472;2023-01-26T16:41:39;3.90;99.90
4811;DHT22;2419;51.276;6.472;2023-01-26T16:44:10;3.90;99.90
4811;DHT22;2419;51.276;6.472;2023-01-26T16:46:39;3.90;99.90
4811;DHT22;2419;51.276;6.472;2023-01-26T16:49:12;3.90;99.90
4811;DHT22;2419;51.276;6.472;2023-01-26T16:51:41;3.90;99.90
4811;DHT22;2419;51.276;6.472;2023-01-26T16:54:10;3.90;99.90